Terminal Aerodrome Forecast
Issued by NWS Wilmington, OH

Current Version | Previous Version | Graphics & Text | Print | Product List | Glossary On
Versions: 1 2 3 4 5 6 7 8 9 10 11 12 13 14 15 16 17 18 19 20 21 22 23 24 25 26 27 28 29 30 31 32
000
FTUS41 KILN 291336 AAA
TAFDAY
TAF AMD
KDAY 291336Z 2914/3012 32004KT 3SM BR OVC006
      TEMPO 2914/2916 1/2SM FG OVC003
     FM291600 33006KT P6SM OVC015
     FM291900 34008KT P6SM BKN035
     FM292300 03006KT P6SM SCT045 BKN250
     FM300600 06006KT P6SM BKN100=

USA.gov is the U.S. government's official web portal to all federal, state and local government web resources and services.